Los Lunas, New Mexico
Current Conditions -  °F | °C
As of 10:55 AM on Saturday 20 Dec 2014 (Local Time) from KE80 Reporting Station
Clear Clear  
Wind Chill: 33°   Ceiling: Unl
Heat Index: 38°   Visibility: 10mi
Dew Point: 27°   Wind: 7mph
Humidity: 63%   Direction: 30°NNE
Pressure: 30.18"   Gusts: NA
Location:  34.81°N, 106.74°W
Report Text: KE80 201755Z AUTO 03006KT 10SM CLR 04/M03 A3018 RMK AO2 T00351029 10035 21070
Loading
Personal Weather Stations






























Interactive Weather Map New forecast layout! Learn more

10-Day Weather Forecast

Advertisements
Track Severe Weather on mobile